Time;durP1;ratioP1;P1;durP2;ratioP2;P2;SDS_P1;SDS_P2;PMS_P1;PMS_P2;Temp;Humidity;BMP_temperature;BMP_pressure;BME280_temperature;BME280_humidity;BME280_pressure;Samples;Min_cycle;Max_cycle;Signal;HPM_P1;HPM_P2
2021/01/26 00:00:06;;;;;;;23.60;17.13;;;2.80;99.90;;;;;;5092610;28;20490;-79
2021/01/26 00:02:33;;;;;;;29.70;18.13;;;2.80;99.90;;;;;;5094247;28;20208;-85
2021/01/26 00:05:00;;;;;;;31.02;19.98;;;2.80;99.90;;;;;;5094166;28;20470;-80
2021/01/26 00:07:26;;;;;;;34.07;17.37;;;2.80;99.90;;;;;;5094198;28;20693;-79
2021/01/26 00:09:53;;;;;;;24.30;18.70;;;2.80;99.90;;;;;;5094813;28;20514;-78
2021/01/26 00:12:19;;;;;;;23.20;17.00;;;2.80;99.90;;;;;;5101521;28;20521;-78
2021/01/26 00:14:45;;;;;;;29.27;19.60;;;2.80;99.90;;;;;;5100689;28;20535;-79
2021/01/26 00:17:12;;;;;;;36.63;19.17;;;2.80;99.90;;;;;;5102340;28;20204;-78
2021/01/26 00:19:38;;;;;;;28.13;20.03;;;2.90;99.90;;;;;;5099519;28;20514;-78
2021/01/26 00:22:05;;;;;;;29.47;20.60;;;2.90;99.90;;;;;;5095517;28;20627;-78
2021/01/26 00:24:31;;;;;;;29.63;20.37;;;2.90;99.90;;;;;;5080485;28;20454;-82
2021/01/26 00:26:58;;;;;;;28.70;20.20;;;2.90;99.90;;;;;;5073537;28;20919;-78
2021/01/26 00:29:24;;;;;;;31.27;19.10;;;2.90;99.90;;;;;;5076072;28;20532;-78
2021/01/26 00:31:51;;;;;;;28.87;20.20;;;2.80;99.90;;;;;;5094186;28;20529;-80
2021/01/26 00:34:17;;;;;;;30.77;20.70;;;2.80;99.90;;;;;;5093992;28;20499;-80
2021/01/26 00:36:43;;;;;;;23.70;16.73;;;2.80;99.90;;;;;;5092100;28;20786;-80
2021/01/26 00:39:11;;;;;;;24.50;17.00;;;2.80;99.90;;;;;;5073647;28;20852;-80
2021/01/26 00:41:37;;;;;;;29.33;20.23;;;2.80;99.90;;;;;;5080102;28;20500;-84
2021/01/26 00:44:04;;;;;;;31.63;18.53;;;2.80;99.90;;;;;;5089951;28;20260;-80
2021/01/26 00:46:30;;;;;;;31.00;21.83;;;2.80;99.90;;;;;;5093776;28;20453;-80
2021/01/26 00:48:57;;;;;;;29.63;19.43;;;2.80;99.90;;;;;;5093494;28;20446;-80
2021/01/26 00:51:23;;;;;;;28.67;19.77;;;2.80;99.90;;;;;;5093963;28;20436;-80
2021/01/26 00:53:49;;;;;;;29.43;20.07;;;2.70;99.90;;;;;;5093459;28;20537;-81
2021/01/26 00:56:17;;;;;;;31.37;22.43;;;2.70;99.90;;;;;;5093981;28;20481;-80
2021/01/26 00:58:43;;;;;;;29.63;20.30;;;2.60;99.90;;;;;;5092364;28;21010;-80
2021/01/26 01:01:09;;;;;;;35.70;21.47;;;2.60;99.90;;;;;;5096878;28;20490;-80
2021/01/26 01:03:36;;;;;;;30.98;21.60;;;2.60;99.90;;;;;;5097354;28;20449;-87
2021/01/26 01:06:02;;;;;;;31.35;22.25;;;2.60;99.90;;;;;;5097615;28;20224;-80
2021/01/26 01:08:29;;;;;;;34.42;24.10;;;2.70;99.90;;;;;;5097607;28;20203;-80
2021/01/26 01:10:56;;;;;;;30.38;22.15;;;2.70;99.90;;;;;;5097467;28;20200;-80
2021/01/26 01:13:23;;;;;;;30.87;20.90;;;2.60;99.90;;;;;;5097663;28;20203;-80
2021/01/26 01:15:50;;;;;;;30.90;21.00;;;2.70;99.90;;;;;;5097344;28;20449;-79
2021/01/26 01:18:17;;;;;;;29.33;21.52;;;2.70;99.90;;;;;;5097667;28;20495;-80
2021/01/26 01:20:43;;;;;;;30.20;19.35;;;2.80;99.90;;;;;;5097301;28;20272;-79
2021/01/26 01:23:10;;;;;;;26.58;17.70;;;2.70;99.90;;;;;;5097846;28;20212;-80
2021/01/26 01:25:36;;;;;;;23.30;18.73;;;2.70;99.90;;;;;;5097484;28;20196;-85
2021/01/26 01:28:03;;;;;;;29.90;19.10;;;2.70;99.90;;;;;;5097133;28;20459;-79
2021/01/26 01:30:33;;;;;;;25.73;16.17;;;2.70;99.90;;;;;;5097434;28;20421;-79
2021/01/26 01:33:00;;;;;;;25.10;17.33;;;2.70;99.90;;;;;;5096938;28;20441;-79
2021/01/26 01:35:27;;;;;;;28.63;17.70;;;2.70;99.90;;;;;;5097159;28;20445;-78
2021/01/26 01:37:53;;;;;;;23.50;16.37;;;2.70;99.90;;;;;;5096816;28;20438;-78
2021/01/26 01:40:23;;;;;;;31.97;18.50;;;2.70;99.90;;;;;;5096910;28;20543;-78
2021/01/26 01:42:50;;;;;;;22.80;17.57;;;2.70;99.90;;;;;;5096235;28;20446;-78
2021/01/26 01:45:19;;;;;;;27.67;17.20;;;2.80;99.90;;;;;;5078182;28;20506;-78
2021/01/26 01:47:50;;;;;;;28.47;16.57;;;2.90;99.90;;;;;;5076005;28;20463;-78
2021/01/26 01:50:24;;;;;;;23.73;19.27;;;2.90;99.90;;;;;;5076155;28;20459;-77
2021/01/26 01:52:56;;;;;;;23.87;17.00;;;2.90;99.90;;;;;;5075873;28;20480;-77
2021/01/26 01:55:25;;;;;;;31.37;18.13;;;2.90;99.90;;;;;;5079120;28;20442;-78
2021/01/26 01:57:55;;;;;;;28.20;18.80;;;2.90;99.90;;;;;;5095078;28;20968;-77
2021/01/26 02:00:22;;;;;;;24.05;16.77;;;2.90;99.90;;;;;;5095227;28;20449;-77
2021/01/26 02:02:55;;;;;;;24.20;17.87;;;3.00;99.90;;;;;;5095324;28;20246;-77
2021/01/26 02:05:23;;;;;;;24.00;16.73;;;3.00;99.90;;;;;;5096354;28;20446;-77
2021/01/26 02:07:52;;;;;;;22.43;16.90;;;3.00;99.90;;;;;;5094768;28;20918;-77
2021/01/26 02:10:19;;;;;;;20.83;14.83;;;3.00;99.90;;;;;;5095994;28;20457;-77
2021/01/26 02:12:45;;;;;;;21.53;14.70;;;3.00;99.90;;;;;;5093902;28;20448;-78
2021/01/26 02:15:13;;;;;;;30.60;16.03;;;3.00;99.90;;;;;;5095368;28;20915;-78
2021/01/26 02:18:12;;;;;;;21.33;15.43;;;3.10;99.90;;;;;;5094688;28;20446;-85
2021/01/26 02:21:16;;;;;;;18.23;15.00;;;3.10;99.90;;;;;;5094099;28;20492;-84
2021/01/26 02:24:21;;;;;;;21.63;15.27;;;3.10;99.90;;;;;;5094485;28;20286;-79
2021/01/26 02:27:36;;;;;;;15.67;13.30;;;3.20;99.90;;;;;;5094761;28;20453;-77
2021/01/26 02:30:27;;;;;;;22.50;14.43;;;3.20;99.90;;;;;;5051692;28;20568;-77
2021/01/26 02:33:38;;;;;;;22.33;14.03;;;3.10;99.90;;;;;;5091677;28;20454;-77
2021/01/26 02:36:41;;;;;;;22.40;13.07;;;3.20;99.90;;;;;;5094704;28;20957;-77
2021/01/26 02:39:26;;;;;;;21.87;15.40;;;3.20;99.90;;;;;;5055300;28;20526;-77
2021/01/26 02:42:01;;;;;;;16.77;13.70;;;3.20;99.90;;;;;;5094442;28;20475;-77
2021/01/26 02:44:33;;;;;;;17.30;12.73;;;3.20;99.90;;;;;;5088722;28;20455;-77
2021/01/26 02:47:10;;;;;;;20.40;12.40;;;3.30;99.90;;;;;;5093856;28;20947;-77
2021/01/26 02:49:46;;;;;;;19.07;14.67;;;3.30;99.90;;;;;;5094777;28;20519;-77
2021/01/26 02:52:17;;;;;;;17.13;12.82;;;3.30;99.90;;;;;;5094529;28;20426;-77
2021/01/26 02:54:52;;;;;;;18.90;12.90;;;3.30;99.90;;;;;;5081647;28;20205;-78
2021/01/26 02:57:22;;;;;;;14.60;12.20;;;3.30;99.90;;;;;;5085867;28;20469;-77
2021/01/26 02:59:51;;;;;;;17.70;14.50;;;3.30;99.90;;;;;;5093894;28;20517;-77
2021/01/26 03:02:23;;;;;;;25.90;13.07;;;3.40;99.90;;;;;;5094387;28;20446;-77
2021/01/26 03:04:54;;;;;;;17.80;11.87;;;3.40;99.90;;;;;;5093792;28;20464;-77
2021/01/26 03:07:22;;;;;;;16.43;12.30;;;3.40;99.90;;;;;;5094585;28;20441;-77
2021/01/26 03:09:55;;;;;;;15.57;12.10;;;3.40;99.90;;;;;;5093694;28;20431;-77
2021/01/26 03:12:25;;;;;;;31.60;12.17;;;3.40;99.90;;;;;;5094059;28;20914;-78
2021/01/26 03:14:57;;;;;;;17.73;12.97;;;3.40;99.90;;;;;;5093630;28;20430;-78
2021/01/26 03:17:29;;;;;;;19.27;12.07;;;3.40;99.90;;;;;;5094116;28;20913;-77
2021/01/26 03:19:58;;;;;;;21.77;12.50;;;3.40;99.90;;;;;;5090880;28;20519;-78
2021/01/26 03:22:27;;;;;;;18.43;11.17;;;3.50;99.90;;;;;;5089738;28;20458;-77
2021/01/26 03:24:57;;;;;;;17.07;13.33;;;3.40;99.90;;;;;;5083260;28;20454;-77
2021/01/26 03:27:28;;;;;;;15.37;10.40;;;3.40;99.90;;;;;;5094372;28;20919;-77
2021/01/26 03:29:58;;;;;;;13.73;10.83;;;3.50;99.90;;;;;;5083734;28;20804;-77
2021/01/26 03:32:29;;;;;;;18.50;9.83;;;3.50;99.90;;;;;;5074038;28;20586;-78
2021/01/26 03:34:56;;;;;;;23.23;10.83;;;3.60;99.90;;;;;;5076603;28;20444;-78
2021/01/26 03:37:23;;;;;;;20.10;9.37;;;3.60;99.90;;;;;;5094020;28;20453;-78
2021/01/26 03:39:49;;;;;;;16.03;10.90;;;3.60;99.90;;;;;;5090762;28;20431;-78
2021/01/26 03:42:16;;;;;;;15.80;10.30;;;3.60;99.90;;;;;;5073713;28;20447;-77
2021/01/26 03:44:43;;;;;;;11.07;8.40;;;3.60;99.90;;;;;;5077652;28;20458;-86
2021/01/26 03:47:22;;;;;;;12.53;8.90;;;3.60;99.90;;;;;;5093846;28;20461;-79
2021/01/26 03:50:27;;;;;;;17.33;9.20;;;3.60;99.90;;;;;;5093816;28;20465;-77
2021/01/26 03:53:18;;;;;;;13.87;10.10;;;3.60;99.90;;;;;;5087783;28;20454;-78
2021/01/26 03:55:48;;;;;;;14.80;9.60;;;3.60;99.90;;;;;;5093219;28;20473;-85
2021/01/26 03:58:27;;;;;;;14.37;9.70;;;3.70;99.90;;;;;;5094049;28;20441;-79
2021/01/26 04:01:00;;;;;;;15.53;10.40;;;3.70;99.90;;;;;;5092932;28;20804;-77
2021/01/26 04:03:39;;;;;;;20.17;9.43;;;3.70;99.90;;;;;;5093317;28;20448;-78
2021/01/26 04:06:11;;;;;;;12.63;8.67;;;3.70;99.90;;;;;;5092963;28;20444;-78
2021/01/26 04:08:41;;;;;;;12.80;8.90;;;3.70;99.90;;;;;;5093696;28;20442;-78
2021/01/26 04:11:13;;;;;;;10.50;8.20;;;3.70;99.90;;;;;;5093223;28;20446;-80
2021/01/26 04:13:47;;;;;;;17.07;9.30;;;3.70;99.90;;;;;;5093772;28;20431;-78
2021/01/26 04:16:17;;;;;;;14.93;8.67;;;3.70;99.90;;;;;;5093222;28;20957;-78
2021/01/26 04:18:46;;;;;;;16.20;8.27;;;3.70;99.90;;;;;;5093296;28;20441;-86
2021/01/26 04:21:13;;;;;;;13.20;8.50;;;3.60;99.90;;;;;;5092704;28;21046;-78
2021/01/26 04:23:40;;;;;;;11.97;7.83;;;3.60;99.90;;;;;;5093375;28;20911;-78
2021/01/26 04:26:09;;;;;;;11.93;7.90;;;3.60;99.90;;;;;;5092516;28;20483;-78
2021/01/26 04:28:38;;;;;;;12.63;8.00;;;3.60;99.90;;;;;;5093352;28;20438;-78
2021/01/26 04:31:07;;;;;;;11.60;7.60;;;3.60;99.90;;;;;;5093023;28;20533;-78
2021/01/26 04:33:34;;;;;;;13.57;8.30;;;3.60;99.90;;;;;;5093479;28;20809;-78
2021/01/26 04:36:00;;;;;;;15.07;7.97;;;3.60;99.90;;;;;;5096519;28;20887;-78
2021/01/26 04:38:27;;;;;;;10.03;5.77;;;3.70;99.90;;;;;;5097767;28;20819;-78
2021/01/26 04:40:58;;;;;;;11.80;6.83;;;3.70;99.90;;;;;;5096994;28;20482;-78
2021/01/26 04:43:33;;;;;;;11.57;6.80;;;3.70;99.90;;;;;;5097635;28;20511;-78
2021/01/26 04:46:10;;;;;;;16.63;8.17;;;3.60;99.90;;;;;;5092390;28;20442;-78
2021/01/26 04:48:45;;;;;;;13.53;8.00;;;3.60;99.90;;;;;;5088566;28;20439;-78
2021/01/26 04:51:18;;;;;;;10.60;7.03;;;3.60;99.90;;;;;;5097543;28;20465;-78
2021/01/26 04:54:15;;;;;;;13.97;7.43;;;3.50;99.90;;;;;;5097098;28;20446;-85
2021/01/26 04:56:52;;;;;;;14.93;8.17;;;3.50;99.90;;;;;;5097838;28;20806;-78
2021/01/26 04:59:58;;;;;;;13.13;8.00;;;3.50;99.90;;;;;;5097237;28;20910;-78
2021/01/26 05:02:44;;;;;;;14.67;7.97;;;3.50;99.90;;;;;;5034622;28;20464;-78
2021/01/26 05:05:13;;;;;;;13.20;7.27;;;3.50;99.90;;;;;;5094522;28;20442;-78
2021/01/26 05:07:43;;;;;;;16.50;8.30;;;3.60;99.90;;;;;;5096989;28;20457;-78
2021/01/26 05:10:13;;;;;;;12.83;7.80;;;3.60;99.90;;;;;;5096523;28;20473;-78
2021/01/26 05:12:42;;;;;;;11.47;6.70;;;3.70;99.90;;;;;;5097046;28;20806;-78
2021/01/26 05:15:16;;;;;;;12.00;7.10;;;3.70;99.90;;;;;;5096163;28;21102;-78
2021/01/26 05:17:51;;;;;;;11.73;7.50;;;3.70;99.90;;;;;;5097053;28;20555;-78
2021/01/26 05:20:22;;;;;;;13.10;7.13;;;3.80;99.90;;;;;;5096378;28;20548;-78
2021/01/26 05:22:51;;;;;;;13.43;7.07;;;3.80;99.90;;;;;;5093010;28;20468;-85
2021/01/26 05:25:21;;;;;;;14.90;7.30;;;3.80;99.90;;;;;;5096395;28;20828;-78
2021/01/26 05:27:48;;;;;;;12.60;7.50;;;3.80;99.90;;;;;;5078245;28;20426;-88
2021/01/26 05:30:25;;;;;;;13.90;8.40;;;3.80;99.90;;;;;;5094684;28;20454;-78
2021/01/26 05:32:54;;;;;;;11.50;7.97;;;3.80;99.90;;;;;;5095492;28;20480;-78
2021/01/26 05:35:20;;;;;;;19.70;10.90;;;3.80;99.90;;;;;;5096374;28;20465;-78
2021/01/26 05:37:49;;;;;;;10.90;8.00;;;3.70;99.90;;;;;;5096413;28;20807;-85
2021/01/26 05:40:21;;;;;;;20.80;7.47;;;3.70;99.90;;;;;;5077145;28;20547;-77
2021/01/26 05:42:52;;;;;;;13.13;5.77;;;3.80;99.90;;;;;;5076126;28;20441;-86
2021/01/26 05:45:24;;;;;;;8.83;6.00;;;3.80;99.90;;;;;;5087645;28;20448;-78
2021/01/26 05:48:03;;;;;;;15.43;6.73;;;3.80;99.90;;;;;;5095308;28;20911;-86
2021/01/26 05:50:31;;;;;;;14.10;6.50;;;3.80;99.90;;;;;;5096538;28;20555;-78
2021/01/26 05:53:04;;;;;;;10.87;5.57;;;3.80;99.90;;;;;;5095222;28;20921;-77
2021/01/26 05:55:32;;;;;;;17.97;7.70;;;3.80;99.90;;;;;;5095390;28;20526;-78
2021/01/26 05:58:08;;;;;;;15.57;6.60;;;3.70;99.90;;;;;;5095269;28;20457;-78
2021/01/26 06:00:35;;;;;;;19.93;6.10;;;3.70;99.90;;;;;;5095628;28;20470;-77
2021/01/26 06:03:10;;;;;;;16.13;5.97;;;3.70;99.90;;;;;;5095247;28;20447;-77
2021/01/26 06:05:36;;;;;;;6.73;5.67;;;3.80;99.90;;;;;;5096106;28;20818;-78
2021/01/26 06:08:09;;;;;;;12.93;6.50;;;3.80;99.90;;;;;;5095112;28;20484;-78
2021/01/26 06:10:37;;;;;;;10.53;6.50;;;3.80;99.90;;;;;;5094962;28;20463;-78
2021/01/26 06:13:04;;;;;;;14.03;6.40;;;3.80;99.90;;;;;;5094688;28;20442;-78
2021/01/26 06:15:34;;;;;;;13.80;5.83;;;3.80;99.90;;;;;;5095284;28;20454;-77
2021/01/26 06:18:13;;;;;;;15.53;5.93;;;3.80;99.90;;;;;;5094824;28;20451;-78
2021/01/26 06:20:40;;;;;;;15.50;7.07;;;3.80;99.90;;;;;;5094535;28;20543;-78
2021/01/26 06:23:15;;;;;;;14.73;6.80;;;3.70;99.90;;;;;;5094283;28;20462;-77
2021/01/26 06:25:44;;;;;;;15.23;7.13;;;3.70;99.90;;;;;;5075177;28;20905;-77
2021/01/26 06:28:30;;;;;;;14.63;6.67;;;3.80;99.90;;;;;;5074099;28;20458;-78
2021/01/26 06:31:06;;;;;;;17.00;6.83;;;3.80;99.90;;;;;;5074005;28;20438;-78
2021/01/26 06:33:59;;;;;;;12.03;6.30;;;3.80;99.90;;;;;;5075537;28;20440;-79
2021/01/26 06:36:52;;;;;;;20.53;7.10;;;3.80;99.90;;;;;;5052128;28;20467;-78
2021/01/26 06:39:55;;;;;;;15.23;8.63;;;3.80;99.90;;;;;;5075163;28;20487;-78
2021/01/26 06:42:30;;;;;;;13.73;8.10;;;3.80;99.90;;;;;;5062384;28;20456;-78
2021/01/26 06:45:13;;;;;;;19.20;9.23;;;3.90;99.90;;;;;;5090910;28;20788;-79
2021/01/26 06:48:11;;;;;;;16.93;10.20;;;3.90;99.90;;;;;;5079305;28;20439;-78
2021/01/26 06:50:59;;;;;;;32.67;10.33;;;3.80;99.90;;;;;;5092258;28;20469;-78
2021/01/26 06:53:36;;;;;;;22.40;12.80;;;3.80;99.90;;;;;;5096449;28;20505;-78
2021/01/26 06:56:13;;;;;;;25.80;13.33;;;3.90;99.90;;;;;;5096069;28;20472;-78
2021/01/26 07:09:27;;;;;;;18.57;9.90;;;3.90;99.90;;;;;;5022343;28;20783;-79
2021/01/26 07:12:16;;;;;;;18.90;10.50;;;4.00;99.90;;;;;;5075969;28;20523;-78
2021/01/26 07:15:01;;;;;;;23.37;10.00;;;4.00;99.90;;;;;;5075759;28;20904;-79
2021/01/26 07:17:40;;;;;;;24.17;9.50;;;4.00;99.90;;;;;;5076001;28;20445;-79
2021/01/26 07:20:20;;;;;;;17.50;10.10;;;4.00;99.90;;;;;;5079267;28;20461;-79
2021/01/26 07:29:50;;;;;;;15.43;9.60;;;3.90;99.90;;;;;;5054108;28;20844;-78
2021/01/26 07:32:23;;;;;;;15.80;10.63;;;4.00;99.90;;;;;;5064650;28;20454;-79
2021/01/26 07:35:00;;;;;;;21.83;10.50;;;3.90;99.90;;;;;;5075557;28;20493;-78
2021/01/26 07:37:35;;;;;;;31.40;13.47;;;3.90;99.90;;;;;;5075055;28;20431;-78
2021/01/26 07:40:11;;;;;;;16.10;9.27;;;3.90;99.90;;;;;;5074779;28;20451;-79
2021/01/26 07:42:47;;;;;;;14.45;9.23;;;3.90;99.90;;;;;;5073074;28;20958;-78
2021/01/26 07:45:20;;;;;;;14.23;7.20;;;3.90;99.90;;;;;;5074549;28;20286;-78
2021/01/26 07:47:56;;;;;;;11.53;6.70;;;4.00;99.90;;;;;;5086819;28;20957;-78
2021/01/26 07:50:28;;;;;;;12.50;7.40;;;3.90;99.90;;;;;;5074881;28;20441;-78
2021/01/26 07:53:10;;;;;;;17.73;7.93;;;4.00;99.90;;;;;;5075663;28;20443;-82
2021/01/26 07:55:42;;;;;;;13.93;6.90;;;4.00;99.90;;;;;;5074942;28;20471;-78
2021/01/26 07:58:11;;;;;;;13.13;6.80;;;3.90;99.90;;;;;;5082247;28;20533;-78
2021/01/26 08:00:43;;;;;;;20.40;5.97;;;4.00;99.90;;;;;;5094182;28;20483;-78
2021/01/26 08:03:10;;;;;;;15.47;6.83;;;3.90;99.90;;;;;;5093866;28;20515;-78
2021/01/26 08:05:43;;;;;;;15.83;6.77;;;3.90;99.90;;;;;;5094583;28;20529;-78
2021/01/26 08:08:22;;;;;;;12.87;5.97;;;3.80;99.90;;;;;;5094185;28;20476;-78
2021/01/26 08:11:05;;;;;;;14.53;6.97;;;3.90;99.90;;;;;;5093516;28;20445;-77
2021/01/26 08:13:33;;;;;;;10.50;6.70;;;3.90;99.90;;;;;;5086313;28;20550;-78
2021/01/26 08:16:13;;;;;;;13.73;6.30;;;4.00;99.90;;;;;;5077702;28;20563;-78
2021/01/26 08:18:42;;;;;;;9.37;6.00;;;4.00;99.90;;;;;;5087296;28;20448;-77
2021/01/26 08:21:30;;;;;;;10.20;7.40;;;4.00;99.90;;;;;;5090503;28;20453;-79
2021/01/26 08:24:13;;;;;;;12.87;8.20;;;4.00;99.90;;;;;;5083664;28;20530;-78
2021/01/26 08:26:40;;;;;;;14.70;7.77;;;4.00;99.90;;;;;;5089682;28;20529;-78
2021/01/26 08:29:07;;;;;;;15.43;8.70;;;4.00;99.90;;;;;;5084364;28;20456;-78
2021/01/26 08:31:36;;;;;;;16.73;9.30;;;4.00;99.90;;;;;;5090573;28;20462;-78
2021/01/26 08:34:37;;;;;;;20.93;8.37;;;4.00;99.90;;;;;;5093158;28;20458;-78
2021/01/26 08:37:24;;;;;;;22.37;9.37;;;3.90;99.90;;;;;;5030863;28;21002;-78
2021/01/26 08:39:55;;;;;;;19.13;9.77;;;3.90;99.90;;;;;;5089599;28;20458;-78
2021/01/26 08:42:59;;;;;;;16.93;8.63;;;3.90;99.90;;;;;;5093833;28;20545;-79
2021/01/26 08:45:52;;;;;;;13.27;9.37;;;4.10;99.90;;;;;;5093695;28;20461;-78
2021/01/26 08:48:28;;;;;;;23.93;9.77;;;4.10;99.90;;;;;;5080549;28;20911;-78
2021/01/26 08:51:12;;;;;;;13.10;9.37;;;4.10;99.90;;;;;;5082655;28;20555;-89
2021/01/26 08:53:40;;;;;;;15.33;9.50;;;4.10;99.90;;;;;;5094014;28;20899;-77
2021/01/26 08:56:33;;;;;;;16.93;9.37;;;4.10;99.90;;;;;;5097116;28;20474;-78
2021/01/26 08:59:01;;;;;;;11.70;8.17;;;4.30;99.90;;;;;;5092513;28;20442;-78
2021/01/26 09:01:53;;;;;;;16.60;9.33;;;4.30;99.90;;;;;;5094030;28;20994;-78
2021/01/26 09:04:47;;;;;;;13.17;8.70;;;4.30;99.90;;;;;;5094235;28;20500;-77
2021/01/26 09:07:45;;;;;;;16.53;8.77;;;4.30;99.90;;;;;;5093312;28;20441;-78
2021/01/26 09:10:30;;;;;;;12.07;8.20;;;4.30;99.90;;;;;;5084151;28;20652;-83
2021/01/26 09:13:08;;;;;;;14.37;8.47;;;4.40;99.90;;;;;;5085381;28;20447;-79
2021/01/26 09:15:38;;;;;;;17.40;8.67;;;4.30;99.90;;;;;;5091011;28;20483;-77
2021/01/26 09:18:05;;;;;;;15.33;7.60;;;4.40;99.90;;;;;;5094275;28;20767;-78
2021/01/26 09:20:34;;;;;;;12.83;7.40;;;4.40;99.90;;;;;;5094603;28;20486;-77
2021/01/26 09:23:04;;;;;;;8.97;7.80;;;4.50;99.90;;;;;;5097165;28;20439;-77
2021/01/26 09:25:35;;;;;;;11.47;7.50;;;4.40;99.90;;;;;;5091865;28;20460;-77
2021/01/26 09:28:04;;;;;;;8.00;7.13;;;4.40;99.90;;;;;;5086374;28;20447;-76
2021/01/26 09:30:32;;;;;;;13.33;7.50;;;4.40;99.90;;;;;;5097371;28;20451;-76
2021/01/26 09:33:01;;;;;;;9.60;7.27;;;4.40;99.90;;;;;;5097411;28;20454;-77
2021/01/26 09:35:34;;;;;;;12.57;8.20;;;4.50;99.90;;;;;;5097472;28;20535;-77
2021/01/26 09:38:12;;;;;;;11.83;7.47;;;4.50;99.90;;;;;;5097385;28;20889;-77
2021/01/26 09:40:40;;;;;;;15.07;9.53;;;4.50;99.90;;;;;;5078991;28;20481;-78
2021/01/26 09:43:17;;;;;;;13.90;9.80;;;4.50;99.90;;;;;;5077249;28;20489;-77
2021/01/26 09:45:43;;;;;;;15.60;9.93;;;4.50;99.90;;;;;;5085114;28;20446;-77
2021/01/26 09:48:15;;;;;;;11.40;8.50;;;4.50;99.90;;;;;;5092918;28;20451;-77
2021/01/26 09:50:43;;;;;;;15.50;9.43;;;4.60;99.90;;;;;;5093227;28;20596;-77
2021/01/26 09:53:10;;;;;;;16.70;10.60;;;4.60;99.90;;;;;;5089352;28;20889;-78
2021/01/26 09:55:36;;;;;;;13.80;9.33;;;4.50;99.90;;;;;;5086059;28;20505;-77
2021/01/26 09:58:03;;;;;;;12.73;9.57;;;4.50;99.90;;;;;;5091140;28;20457;-77
2021/01/26 10:00:31;;;;;;;15.77;9.90;;;4.60;99.90;;;;;;5088323;28;20487;-78
2021/01/26 10:02:59;;;;;;;19.40;11.17;;;4.70;99.90;;;;;;5090572;28;20454;-86
2021/01/26 10:05:28;;;;;;;26.97;11.00;;;4.70;99.90;;;;;;5081024;28;20455;-79
2021/01/26 10:08:07;;;;;;;15.37;9.47;;;4.70;99.90;;;;;;5090414;28;20493;-79
2021/01/26 10:10:34;;;;;;;17.40;10.90;;;4.70;99.90;;;;;;5091684;28;20539;-78
2021/01/26 10:13:30;;;;;;;13.50;10.97;;;4.70;99.90;;;;;;5090037;28;20527;-83
2021/01/26 10:15:58;;;;;;;15.43;9.73;;;4.80;99.90;;;;;;5092252;28;20464;-78
2021/01/26 10:18:28;;;;;;;20.20;10.50;;;4.80;99.90;;;;;;5094907;28;20459;-80
2021/01/26 10:21:00;;;;;;;21.63;10.73;;;4.90;99.90;;;;;;5093751;28;20478;-78
2021/01/26 10:23:31;;;;;;;14.90;8.37;;;4.80;99.90;;;;;;5094713;28;20636;-78
2021/01/26 10:26:10;;;;;;;20.83;10.90;;;4.90;99.90;;;;;;5094441;28;20931;-84
2021/01/26 10:28:57;;;;;;;14.90;9.23;;;4.80;99.90;;;;;;5094644;28;20441;-78
2021/01/26 10:31:23;;;;;;;24.03;10.40;;;4.70;99.90;;;;;;5091291;28;20497;-78
2021/01/26 10:33:50;;;;;;;14.07;8.57;;;4.70;99.90;;;;;;5090311;28;20845;-78
2021/01/26 10:36:25;;;;;;;7.23;5.13;;;4.60;99.90;;;;;;5092928;28;20792;-80
2021/01/26 10:38:53;;;;;;;7.57;4.43;;;4.40;99.90;;;;;;5094267;28;20495;-80
2021/01/26 10:41:23;;;;;;;5.53;4.17;;;4.30;99.90;;;;;;5093893;28;20486;-79
2021/01/26 10:44:01;;;;;;;5.37;4.07;;;4.20;99.90;;;;;;5093957;28;20475;-79
2021/01/26 10:46:32;;;;;;;4.33;3.20;;;4.10;99.90;;;;;;5088968;28;20452;-81
2021/01/26 10:49:10;;;;;;;4.57;2.60;;;4.10;99.90;;;;;;5093883;28;20444;-82
2021/01/26 10:51:38;;;;;;;6.60;2.80;;;4.20;99.90;;;;;;5093976;28;20452;-85
2021/01/26 10:54:07;;;;;;;4.60;2.30;;;4.30;99.90;;;;;;5086276;28;20539;-80
2021/01/26 10:56:34;;;;;;;5.30;1.83;;;4.30;99.90;;;;;;5094117;28;20554;-79
2021/01/26 10:59:00;;;;;;;12.03;2.70;;;4.20;99.90;;;;;;5094797;28;20482;-85
2021/01/26 11:01:27;;;;;;;7.10;3.50;;;4.10;99.90;;;;;;5087902;28;20470;-78
2021/01/26 11:03:54;;;;;;;8.40;2.97;;;4.10;99.90;;;;;;5085951;28;20453;-80
2021/01/26 11:06:25;;;;;;;7.00;2.83;;;4.10;99.90;;;;;;5091887;28;20488;-79
2021/01/26 11:08:52;;;;;;;7.70;3.60;;;4.00;99.90;;;;;;5092945;28;20491;-80
2021/01/26 11:11:22;;;;;;;8.70;2.93;;;4.00;99.90;;;;;;5089269;28;20969;-81
2021/01/26 11:13:50;;;;;;;12.43;4.70;;;4.20;99.90;;;;;;5089958;28;20488;-79
2021/01/26 11:16:16;;;;;;;6.17;3.33;;;4.30;99.90;;;;;;5092972;28;20459;-80
2021/01/26 11:18:43;;;;;;;8.67;3.60;;;4.40;99.90;;;;;;5093608;28;20462;-79
2021/01/26 11:21:09;;;;;;;5.57;3.47;;;4.50;99.90;;;;;;5091600;28;20568;-80
2021/01/26 11:23:36;;;;;;;8.07;3.30;;;4.60;99.90;;;;;;5093951;28;20535;-83
2021/01/26 11:26:03;;;;;;;7.30;3.80;;;4.70;99.90;;;;;;5090974;28;20444;-88
2021/01/26 11:28:30;;;;;;;9.90;4.50;;;4.60;99.90;;;;;;5094109;28;20542;-79
2021/01/26 11:30:57;;;;;;;5.73;3.80;;;4.70;99.90;;;;;;5093881;28;20546;-79
2021/01/26 11:33:23;;;;;;;5.43;3.50;;;4.70;99.90;;;;;;5090541;28;20447;-78
2021/01/26 11:35:49;;;;;;;12.10;4.23;;;4.80;99.90;;;;;;5092407;28;20575;-79
2021/01/26 11:38:16;;;;;;;5.90;3.80;;;4.80;99.90;;;;;;5093700;28;20454;-78
2021/01/26 11:40:43;;;;;;;12.07;5.80;;;4.80;99.90;;;;;;5094564;28;20531;-76
2021/01/26 11:43:10;;;;;;;9.63;6.73;;;4.70;99.90;;;;;;5094162;28;20794;-76
2021/01/26 11:45:39;;;;;;;7.90;5.50;;;4.70;99.90;;;;;;5094408;28;20460;-76
2021/01/26 11:48:08;;;;;;;8.23;5.47;;;4.80;99.90;;;;;;5094038;28;20451;-76
2021/01/26 11:50:34;;;;;;;8.53;5.00;;;4.90;99.90;;;;;;5094610;28;20775;-76
2021/01/26 11:53:01;;;;;;;6.00;4.40;;;4.80;99.90;;;;;;5094186;28;20535;-80
2021/01/26 11:55:31;;;;;;;8.33;4.90;;;4.70;99.90;;;;;;5093966;28;21049;-77
2021/01/26 11:57:58;;;;;;;11.30;6.17;;;4.90;99.90;;;;;;5084100;28;20888;-76
2021/01/26 12:00:27;;;;;;;8.13;5.93;;;4.90;99.90;;;;;;5092382;28;20460;-80
2021/01/26 12:02:55;;;;;;;9.07;5.67;;;5.00;99.90;;;;;;5092294;28;20507;-76
2021/01/26 12:05:24;;;;;;;8.30;5.30;;;5.20;99.90;;;;;;5090713;28;20549;-76
2021/01/26 12:07:54;;;;;;;7.40;4.67;;;5.40;99.90;;;;;;5093018;28;20470;-76
2021/01/26 12:10:21;;;;;;;6.83;5.10;;;5.50;99.90;;;;;;5089278;28;20455;-77
2021/01/26 12:12:47;;;;;;;10.30;5.10;;;5.70;99.90;;;;;;5093192;28;20478;-77
2021/01/26 12:15:17;;;;;;;5.20;4.23;;;5.80;99.90;;;;;;5091918;28;20448;-77
2021/01/26 12:17:43;;;;;;;8.40;4.17;;;6.10;99.90;;;;;;5092616;28;20963;-79
2021/01/26 12:20:12;;;;;;;5.77;4.30;;;6.00;99.90;;;;;;5089521;28;20821;-78
2021/01/26 12:22:39;;;;;;;6.73;3.87;;;6.00;99.90;;;;;;5091046;28;20474;-78
2021/01/26 12:25:07;;;;;;;5.23;3.77;;;6.00;99.90;;;;;;5085784;28;20450;-77
2021/01/26 12:27:34;;;;;;;9.77;4.40;;;6.10;99.90;;;;;;5093172;28;20538;-77
2021/01/26 12:30:02;;;;;;;5.40;4.07;;;6.20;99.90;;;;;;5092949;28;20548;-78
2021/01/26 12:32:28;;;;;;;5.83;4.57;;;6.30;99.90;;;;;;5091971;28;20450;-81
2021/01/26 12:34:56;;;;;;;4.93;3.40;;;6.20;99.90;;;;;;5091431;28;20549;-81
2021/01/26 12:37:23;;;;;;;6.20;3.87;;;6.20;99.90;;;;;;5090250;28;20458;-78
2021/01/26 12:39:56;;;;;;;5.27;3.20;;;6.10;99.90;;;;;;5093562;28;20525;-77
2021/01/26 12:42:29;;;;;;;5.30;3.27;;;6.10;99.90;;;;;;5092592;28;20498;-78
2021/01/26 12:44:56;;;;;;;5.10;3.70;;;6.10;99.90;;;;;;5088650;28;20442;-77
2021/01/26 12:47:24;;;;;;;7.50;4.13;;;6.00;99.90;;;;;;5083811;28;20671;-77
2021/01/26 12:49:53;;;;;;;6.47;3.97;;;6.10;99.90;;;;;;5092879;28;20442;-77
2021/01/26 12:52:20;;;;;;;6.93;4.63;;;6.00;99.90;;;;;;5090421;28;20445;-77
2021/01/26 12:54:47;;;;;;;6.53;5.83;;;6.00;99.90;;;;;;5088871;28;20932;-78
2021/01/26 12:57:13;;;;;;;6.33;5.53;;;6.00;99.90;;;;;;5093454;28;20563;-77
2021/01/26 12:59:40;;;;;;;8.00;5.73;;;5.90;99.90;;;;;;5095203;28;20579;-78
2021/01/26 13:02:06;;;;;;;5.93;5.30;;;6.00;99.90;;;;;;5092868;28;20478;-85
2021/01/26 13:04:38;;;;;;;8.40;6.60;;;6.20;99.90;;;;;;5089586;28;20484;-78
2021/01/26 13:07:05;;;;;;;4.70;4.20;;;6.20;99.90;;;;;;5096267;28;20476;-79
2021/01/26 13:09:31;;;;;;;8.63;6.07;;;6.40;99.90;;;;;;5097547;28;20481;-78
2021/01/26 13:11:58;;;;;;;8.67;5.03;;;6.60;99.90;;;;;;5099597;28;20462;-79
2021/01/26 13:14:25;;;;;;;10.37;5.07;;;7.00;99.90;;;;;;5100339;28;20533;-80
2021/01/26 13:16:52;;;;;;;8.50;4.70;;;7.30;99.90;;;;;;5100145;28;20441;-78
2021/01/26 13:22:44;;;;;;;7.67;4.20;;;7.80;99.90;;;;;;5098567;28;20530;-79
2021/01/26 13:25:12;;;;;;;6.83;4.07;;;8.30;99.90;;;;;;5099102;28;20444;-80
2021/01/26 13:27:42;;;;;;;6.67;3.47;;;8.50;99.90;;;;;;5100551;28;20450;-80
2021/01/26 13:30:11;;;;;;;7.07;3.60;;;8.60;99.90;;;;;;5098033;28;20478;-80
2021/01/26 13:32:38;;;;;;;7.53;3.03;;;9.00;99.90;;;;;;5096055;28;20456;-80